createdAt,value
2023-01-30T00:03:41.935Z,6.50
2023-01-30T00:08:41.815Z,7.20
2023-01-30T00:13:42.813Z,8.20
2023-01-30T00:18:44.035Z,6.70
2023-01-30T00:23:50.948Z,6.30
2023-01-30T00:28:49.790Z,7.80
2023-01-30T00:33:49.287Z,6.20
2023-01-30T00:38:51.606Z,5.60
2023-01-30T00:44:08.751Z,7.20
2023-01-30T00:49:09.693Z,7.10
2023-01-30T00:54:10.282Z,7.70
2023-01-30T00:59:10.277Z,5.90
2023-01-30T01:04:12.550Z,6.20
2023-01-30T01:09:12.971Z,7.10
2023-01-30T01:14:13.164Z,7.60
2023-01-30T01:19:13.872Z,6.50
2023-01-30T01:24:17.292Z,7.20
2023-01-30T01:29:18.719Z,5.30
2023-01-30T01:34:18.220Z,5.60
2023-01-30T01:39:17.540Z,6.10
2023-01-30T01:44:18.471Z,5.90
2023-01-30T01:49:25.646Z,5.10
2023-01-30T01:54:35.458Z,4.90
2023-01-30T01:59:43.461Z,4.80
2023-01-30T02:05:05.736Z,5.20
2023-01-30T02:10:06.617Z,4.70
2023-01-30T02:15:08.320Z,5.00
2023-01-30T02:20:18.934Z,3.90
2023-01-30T02:26:06.879Z,4.70
2023-01-30T02:31:29.274Z,3.80
2023-01-30T02:36:48.016Z,3.80
2023-01-30T02:42:02.011Z,4.10
2023-01-30T02:47:09.631Z,3.00
2023-01-30T02:52:13.176Z,5.40
2023-01-30T02:57:26.569Z,4.70
2023-01-30T03:03:08.699Z,3.80
2023-01-30T03:08:27.388Z,4.90
2023-01-30T03:13:43.974Z,5.60
2023-01-30T03:18:46.676Z,4.60
2023-01-30T03:23:51.020Z,4.30
2023-01-30T03:28:53.580Z,4.20
2023-01-30T03:33:52.756Z,4.60
2023-01-30T03:38:52.784Z,6.00
2023-01-30T03:43:52.956Z,6.00
2023-01-30T03:48:51.765Z,5.50
2023-01-30T03:53:51.598Z,5.40
2023-01-30T03:58:51.129Z,4.40
2023-01-30T04:03:53.741Z,4.70
2023-01-30T04:08:55.549Z,5.50
2023-01-30T04:14:16.106Z,4.60
2023-01-30T04:19:37.635Z,5.00
2023-01-30T04:24:37.013Z,5.60
2023-01-30T04:29:36.269Z,6.30
2023-01-30T04:34:36.277Z,5.60
2023-01-30T04:39:35.976Z,6.00
2023-01-30T04:44:35.643Z,5.30
2023-01-30T04:49:45.603Z,5.10
2023-01-30T04:54:45.641Z,6.00
2023-01-30T04:59:47.272Z,5.00
2023-01-30T05:04:46.389Z,4.90
2023-01-30T05:09:45.098Z,4.40
2023-01-30T05:14:46.731Z,3.90
2023-01-30T05:19:45.885Z,3.30
2023-01-30T05:24:45.921Z,3.70
2023-01-30T05:29:45.273Z,3.40
2023-01-30T05:34:45.101Z,3.90
2023-01-30T05:39:46.383Z,3.70
2023-01-30T05:44:46.288Z,3.20
2023-01-30T05:49:46.260Z,3.70
2023-01-30T05:54:48.095Z,3.60
2023-01-30T05:59:47.862Z,4.20
2023-01-30T06:04:47.964Z,3.50
2023-01-30T06:09:47.319Z,3.90
2023-01-30T06:14:46.677Z,3.60
2023-01-30T06:19:46.518Z,3.90
2023-01-30T06:24:45.615Z,3.60
2023-01-30T06:29:45.639Z,3.80
2023-01-30T06:34:47.452Z,3.90
2023-01-30T06:39:50.155Z,3.30
2023-01-30T06:44:50.154Z,4.50
2023-01-30T06:49:50.665Z,4.30
2023-01-30T06:54:49.971Z,4.10
2023-01-30T06:59:50.031Z,3.80
2023-01-30T07:04:50.054Z,3.80
2023-01-30T07:10:05.821Z,3.90
2023-01-30T07:15:07.237Z,4.40
2023-01-30T07:20:11.398Z,4.00
2023-01-30T07:25:12.629Z,4.30
2023-01-30T07:30:15.424Z,4.80
2023-01-30T07:35:15.230Z,4.60
2023-01-30T07:40:18.388Z,4.90
2023-01-30T07:45:19.751Z,4.90
2023-01-30T07:50:24.708Z,5.30
2023-01-30T07:55:24.549Z,4.00
2023-01-30T08:00:26.378Z,5.40
2023-01-30T08:05:26.078Z,5.00
2023-01-30T08:10:25.874Z,5.10
2023-01-30T08:15:25.594Z,6.50
2023-01-30T08:20:25.112Z,4.80
2023-01-30T08:25:25.433Z,5.20
2023-01-30T08:30:26.380Z,5.40
2023-01-30T08:35:25.881Z,6.80
2023-01-30T08:40:25.213Z,6.70
2023-01-30T08:45:27.629Z,6.80
2023-01-30T08:50:27.050Z,4.90
2023-01-30T08:55:26.525Z,7.70
2023-01-30T09:00:30.578Z,6.80
2023-01-30T09:05:31.415Z,5.90
2023-01-30T09:10:31.759Z,7.00
2023-01-30T09:15:32.104Z,7.10
2023-01-30T09:20:34.805Z,8.40
2023-01-30T09:25:34.228Z,7.70
2023-01-30T09:30:34.627Z,6.70
2023-01-30T09:35:35.518Z,6.50
2023-01-30T09:40:47.638Z,7.70
2023-01-30T09:46:02.269Z,7.70
2023-01-30T09:51:19.528Z,7.60
2023-01-30T09:56:18.710Z,7.10
2023-01-30T10:01:28.792Z,6.30
2023-01-30T10:06:28.543Z,7.60
2023-01-30T10:11:45.285Z,7.80
2023-01-30T10:17:01.480Z,7.10
2023-01-30T10:22:17.959Z,6.50
2023-01-30T10:27:22.188Z,6.50
2023-01-30T10:32:31.887Z,6.90
2023-01-30T10:37:41.485Z,5.80
2023-01-30T10:42:50.842Z,7.30
2023-01-30T10:48:03.087Z,5.00
2023-01-30T10:53:17.418Z,6.20
2023-01-30T10:58:29.823Z,5.40
2023-01-30T11:03:45.671Z,6.50
2023-01-30T11:08:48.155Z,5.20
2023-01-30T11:13:46.792Z,6.80
2023-01-30T11:24:21.876Z,5.50
2023-01-30T11:29:31.844Z,5.70
2023-01-30T11:34:31.083Z,5.70
2023-01-30T11:39:35.002Z,5.40
2023-01-30T11:44:38.091Z,6.00
2023-01-30T11:49:47.663Z,7.10
2023-01-30T11:55:08.993Z,6.20
2023-01-30T12:00:20.339Z,6.60
2023-01-30T12:05:33.238Z,5.10
2023-01-30T12:10:42.040Z,6.80
2023-01-30T12:15:45.693Z,6.50
2023-01-30T12:20:58.100Z,6.10
2023-01-30T12:26:08.568Z,5.70
2023-01-30T12:31:17.955Z,6.00
2023-01-30T12:36:32.256Z,5.70
2023-01-30T12:41:48.965Z,7.90
2023-01-30T12:47:07.024Z,5.30
2023-01-30T12:52:48.051Z,6.30
2023-01-30T12:57:55.270Z,5.50
2023-01-30T13:03:21.145Z,5.30
2023-01-30T13:08:43.308Z,6.60
2023-01-30T13:13:54.286Z,5.90
2023-01-30T13:19:01.876Z,5.40
2023-01-30T13:24:21.826Z,4.10
2023-01-30T13:29:31.751Z,6.20
2023-01-30T13:34:36.402Z,6.20
2023-01-30T13:39:42.556Z,7.80
2023-01-30T13:44:46.547Z,8.20
2023-01-30T13:49:59.396Z,5.20
2023-01-30T13:55:11.495Z,8.50
2023-01-30T14:00:34.054Z,6.50
2023-01-30T14:06:21.150Z,8.40
2023-01-30T14:11:44.773Z,5.90
2023-01-30T14:16:55.031Z,6.80
2023-01-30T14:22:05.441Z,5.30
2023-01-30T14:27:32.267Z,6.40
2023-01-30T14:32:59.129Z,6.30
2023-01-30T14:38:19.261Z,5.70
2023-01-30T14:44:04.367Z,7.70
2023-01-30T14:49:19.790Z,6.20
2023-01-30T14:54:41.265Z,5.00
2023-01-30T14:59:59.341Z,6.50
2023-01-30T15:05:15.970Z,4.20
2023-01-30T15:10:33.141Z,8.50
2023-01-30T15:15:42.609Z,10.50
2023-01-30T15:21:01.921Z,8.20
2023-01-30T15:26:25.249Z,9.50
2023-01-30T15:31:26.663Z,8.40
2023-01-30T15:36:34.172Z,7.40
2023-01-30T15:41:41.804Z,8.90
2023-01-30T15:46:57.125Z,7.70
2023-01-30T15:52:03.476Z,6.70
2023-01-30T15:57:03.365Z,7.40
2023-01-30T16:02:20.770Z,7.50
2023-01-30T16:07:27.479Z,8.50
2023-01-30T16:12:32.139Z,8.40
2023-01-30T16:17:35.758Z,7.50
2023-01-30T16:22:38.494Z,7.20
2023-01-30T16:27:41.406Z,7.50
2023-01-30T16:32:41.882Z,7.70
2023-01-30T16:37:41.858Z,6.20
2023-01-30T16:42:41.373Z,7.30
2023-01-30T16:47:42.274Z,4.80
2023-01-30T16:52:52.113Z,7.30
2023-01-30T16:58:03.162Z,8.10
2023-01-30T17:03:06.987Z,7.10
2023-01-30T17:08:06.861Z,6.60
2023-01-30T17:13:28.017Z,5.90
2023-01-30T17:18:26.997Z,6.20
2023-01-30T17:23:27.990Z,9.50
2023-01-30T17:28:28.147Z,7.00
2023-01-30T17:33:28.215Z,5.30
2023-01-30T17:38:31.688Z,5.50
2023-01-30T17:43:33.397Z,4.60
2023-01-30T17:48:34.623Z,7.10
2023-01-30T17:53:33.980Z,6.10
2023-01-30T17:58:34.760Z,5.90
2023-01-30T18:03:34.007Z,6.80
2023-01-30T18:08:33.311Z,6.70
2023-01-30T18:13:34.559Z,6.30
2023-01-30T18:18:35.346Z,5.50
2023-01-30T18:23:33.883Z,5.60
2023-01-30T18:28:33.262Z,6.20
2023-01-30T18:33:32.967Z,5.30
2023-01-30T18:38:32.666Z,5.60
2023-01-30T18:43:32.535Z,4.60
2023-01-30T18:48:33.728Z,3.10
2023-01-30T18:53:35.005Z,5.20
2023-01-30T18:58:36.139Z,5.10
2023-01-30T19:03:36.066Z,4.80
2023-01-30T19:08:36.336Z,4.30
2023-01-30T19:13:36.745Z,3.50
2023-01-30T19:18:36.876Z,5.70
2023-01-30T19:23:36.302Z,3.20
2023-01-30T19:29:15.703Z,4.60
2023-01-30T19:34:30.822Z,3.70
2023-01-30T19:39:33.769Z,5.40
2023-01-30T19:44:33.267Z,5.70
2023-01-30T19:49:35.794Z,5.70
2023-01-30T19:54:37.219Z,6.00
2023-01-30T19:59:38.893Z,4.20
2023-01-30T20:04:40.750Z,5.80
2023-01-30T20:09:40.358Z,5.20
2023-01-30T20:14:45.360Z,5.00
2023-01-30T20:19:44.717Z,3.70
2023-01-30T20:24:49.374Z,5.80
2023-01-30T20:30:00.838Z,4.80
2023-01-30T20:35:00.709Z,5.40
2023-01-30T20:40:00.241Z,3.60
2023-01-30T20:45:00.741Z,5.10
2023-01-30T20:50:00.166Z,3.30
2023-01-30T20:55:02.636Z,4.40
2023-01-30T21:00:02.200Z,3.90
2023-01-30T21:05:01.837Z,4.10
2023-01-30T21:10:01.176Z,2.60
2023-01-30T21:15:00.781Z,2.90
2023-01-30T21:20:00.436Z,2.50
2023-01-30T21:24:59.731Z,1.90
2023-01-30T21:30:00.614Z,2.10
2023-01-30T21:35:01.657Z,2.10
2023-01-30T21:40:19.464Z,2.40
2023-01-30T21:45:21.194Z,2.40
2023-01-30T21:50:21.709Z,2.70
2023-01-30T21:55:22.001Z,2.80
2023-01-30T22:00:22.670Z,2.40
2023-01-30T22:05:22.062Z,1.90
2023-01-30T22:10:22.447Z,2.50
2023-01-30T22:15:22.839Z,2.30
2023-01-30T22:20:22.742Z,2.10
2023-01-30T22:25:22.521Z,3.50
2023-01-30T22:30:22.684Z,4.00
2023-01-30T22:35:22.116Z,3.20
2023-01-30T22:40:22.619Z,2.00
2023-01-30T22:45:36.265Z,2.60
2023-01-30T22:50:42.409Z,3.60
2023-01-30T22:55:52.287Z,2.40
2023-01-30T23:01:10.279Z,2.80
2023-01-30T23:06:12.837Z,2.50
2023-01-30T23:11:18.492Z,3.10
2023-01-30T23:16:22.232Z,1.70
2023-01-30T23:21:22.424Z,2.70
2023-01-30T23:26:23.037Z,2.70
2023-01-30T23:31:25.571Z,2.00
2023-01-30T23:36:25.520Z,2.00
2023-01-30T23:41:28.565Z,2.10
2023-01-30T23:46:31.143Z,3.30
2023-01-30T23:51:33.285Z,1.90
2023-01-30T23:56:37.545Z,2.00
